Time;durP1;ratioP1;P1;durP2;ratioP2;P2;SDS_P1;SDS_P2;PMS_P1;PMS_P2;Temp;Humidity;BMP_temperature;BMP_pressure;BME280_temperature;BME280_humidity;BME280_pressure;Samples;Min_cycle;Max_cycle;Signal;HPM_P1;HPM_P2
2022/08/18 04:01:23;;;;;;;17.47;15.67;;;20.40;99.90;;;;;;5610967;23;21037;-75
2022/08/18 04:03:53;;;;;;;19.73;15.73;;;20.40;99.90;;;;;;5012499;28;20447;-75
2022/08/18 04:06:23;;;;;;;17.93;16.00;;;20.40;99.90;;;;;;5012029;28;20454;-75
2022/08/18 04:08:51;;;;;;;21.50;17.50;;;20.40;99.90;;;;;;5011994;28;20459;-75
2022/08/18 04:11:18;;;;;;;17.77;16.00;;;20.40;99.90;;;;;;5011615;28;20493;-75
2022/08/18 04:13:44;;;;;;;24.07;16.70;;;20.40;99.90;;;;;;5051868;23;20501;-74
2022/08/18 04:16:13;;;;;;;19.00;17.10;;;20.40;99.90;;;;;;5012147;28;20457;-75
2022/08/18 04:18:41;;;;;;;18.97;16.97;;;20.40;99.90;;;;;;5011733;28;20830;-74
2022/08/18 04:21:10;;;;;;;17.63;15.03;;;20.30;99.90;;;;;;5012354;28;20473;-75
2022/08/18 04:23:37;;;;;;;19.30;17.00;;;20.30;99.90;;;;;;5012187;28;20485;-74
2022/08/18 04:26:06;;;;;;;22.87;17.10;;;20.30;99.90;;;;;;5012041;28;20455;-75
2022/08/18 04:28:33;;;;;;;19.70;17.60;;;20.30;99.90;;;;;;5011977;28;21001;-75
2022/08/18 04:31:05;;;;;;;18.33;16.43;;;20.40;99.90;;;;;;5011936;28;20961;-75
2022/08/18 04:33:32;;;;;;;19.13;16.53;;;20.40;99.90;;;;;;5012231;28;20474;-74
2022/08/18 04:36:09;;;;;;;18.30;15.67;;;20.40;99.90;;;;;;5011602;28;20466;-75
2022/08/18 04:38:36;;;;;;;19.70;16.40;;;20.40;99.90;;;;;;5011967;28;20466;-74
2022/08/18 04:41:03;;;;;;;18.20;16.30;;;20.40;99.90;;;;;;5012160;28;20491;-75
2022/08/18 04:43:30;;;;;;;19.93;17.23;;;20.50;99.90;;;;;;5012277;28;20475;-74
2022/08/18 04:46:00;;;;;;;19.60;16.00;;;20.50;99.90;;;;;;5011728;28;20461;-74
2022/08/18 04:48:32;;;;;;;20.20;18.10;;;20.40;99.90;;;;;;5011713;28;20466;-74
2022/08/18 04:51:04;;;;;;;18.83;16.83;;;20.50;99.90;;;;;;5012064;28;20557;-74
2022/08/18 04:53:44;;;;;;;20.90;18.70;;;20.50;99.90;;;;;;5011748;28;20502;-74
2022/08/18 04:56:18;;;;;;;21.90;16.50;;;20.50;99.90;;;;;;5011791;28;20505;-74
2022/08/18 04:58:51;;;;;;;19.40;17.40;;;20.50;99.90;;;;;;5011990;28;20526;-74
2022/08/18 05:01:20;;;;;;;18.47;16.47;;;20.50;99.90;;;;;;5012141;28;20438;-74
2022/08/18 05:03:48;;;;;;;18.30;16.30;;;20.50;99.90;;;;;;5011856;28;20505;-74
2022/08/18 05:06:16;;;;;;;19.77;17.70;;;20.50;99.90;;;;;;5011696;28;20558;-74
2022/08/18 05:08:43;;;;;;;19.97;17.00;;;20.40;99.90;;;;;;5011718;28;20459;-74
2022/08/18 05:11:10;;;;;;;19.17;16.33;;;20.50;99.90;;;;;;5011839;28;20447;-74
2022/08/18 05:13:37;;;;;;;20.43;18.23;;;20.50;99.90;;;;;;5011393;28;21006;-74
2022/08/18 05:16:04;;;;;;;22.23;18.83;;;20.50;99.90;;;;;;5011288;28;20455;-74
2022/08/18 05:18:31;;;;;;;18.50;16.60;;;20.50;99.90;;;;;;5011715;28;20451;-74
2022/08/18 05:20:58;;;;;;;22.57;17.70;;;20.50;99.90;;;;;;5011535;28;20516;-74
2022/08/18 05:23:29;;;;;;;19.50;17.50;;;20.50;99.90;;;;;;5012973;28;20474;-75
2022/08/18 05:26:00;;;;;;;19.73;17.63;;;20.50;99.90;;;;;;5014856;28;20457;-74
2022/08/18 05:28:27;;;;;;;19.30;17.13;;;20.60;99.90;;;;;;5015371;28;20455;-74
2022/08/18 05:30:54;;;;;;;23.30;20.90;;;20.50;99.90;;;;;;5015035;28;20970;-74
2022/08/18 05:33:20;;;;;;;21.07;18.83;;;20.50;99.90;;;;;;5014970;28;20474;-74
2022/08/18 05:35:51;;;;;;;20.00;17.93;;;20.60;99.90;;;;;;5014909;28;20601;-74
2022/08/18 05:38:32;;;;;;;19.93;17.60;;;20.60;99.90;;;;;;5015106;28;20525;-75
2022/08/18 05:41:08;;;;;;;27.20;21.60;;;20.60;99.90;;;;;;5014764;28;21005;-74
2022/08/18 05:43:36;;;;;;;23.90;20.47;;;20.60;99.90;;;;;;5014931;28;20480;-74
2022/08/18 05:46:05;;;;;;;25.40;22.70;;;20.60;99.90;;;;;;5014694;28;20463;-74
2022/08/18 05:48:32;;;;;;;23.37;20.83;;;20.60;99.90;;;;;;5014847;28;20484;-74
2022/08/18 05:51:07;;;;;;;23.57;20.93;;;20.60;99.90;;;;;;5014516;28;20974;-74
2022/08/18 05:59:13;;;;;;;26.53;22.60;;;20.70;99.90;;;;;;5014482;28;20430;-74
2022/08/18 06:01:43;;;;;;;25.47;22.67;;;20.70;99.90;;;;;;5014816;28;20553;-74
2022/08/18 06:04:23;;;;;;;27.87;22.27;;;20.70;99.90;;;;;;5014332;28;20856;-75
2022/08/18 06:06:51;;;;;;;24.57;21.60;;;20.70;99.90;;;;;;5014424;28;20458;-74
2022/08/18 06:09:23;;;;;;;22.87;19.77;;;20.70;99.90;;;;;;5014760;28;20466;-74
2022/08/18 06:11:53;;;;;;;22.70;20.10;;;20.60;99.90;;;;;;5014137;28;20958;-74
2022/08/18 06:14:19;;;;;;;23.77;21.27;;;20.70;99.90;;;;;;5013903;28;21061;-74
2022/08/18 06:16:59;;;;;;;26.63;21.03;;;20.70;99.90;;;;;;5014468;28;20459;-74
2022/08/18 06:19:41;;;;;;;25.13;21.23;;;20.60;99.90;;;;;;5014446;28;20497;-74
2022/08/18 06:22:17;;;;;;;26.27;22.20;;;20.70;99.90;;;;;;5014299;28;20522;-74
2022/08/18 06:24:52;;;;;;;27.37;21.80;;;20.70;99.90;;;;;;5013870;28;20982;-74
2022/08/18 06:27:29;;;;;;;24.23;21.40;;;20.70;99.90;;;;;;5014500;28;20449;-74
2022/08/18 06:30:05;;;;;;;23.50;21.10;;;20.80;99.90;;;;;;5014085;28;20443;-74
2022/08/18 06:32:59;;;;;;;23.77;20.90;;;20.80;99.90;;;;;;5014011;28;20512;-74
2022/08/18 06:35:34;;;;;;;22.03;19.50;;;20.80;99.90;;;;;;5012798;28;20453;-74
2022/08/18 06:41:08;;;;;;;20.70;16.80;;;20.80;99.90;;;;;;4997992;28;20483;-74
2022/08/18 06:43:38;;;;;;;18.80;15.57;;;20.80;99.90;;;;;;5013876;28;20488;-74
2022/08/18 06:46:12;;;;;;;22.67;16.10;;;20.80;99.90;;;;;;5013724;28;20461;-74
2022/08/18 06:48:44;;;;;;;17.87;15.97;;;20.80;99.90;;;;;;5013923;28;20443;-74
2022/08/18 06:51:18;;;;;;;19.30;16.40;;;20.70;99.90;;;;;;5013438;28;20432;-74
2022/08/18 06:53:55;;;;;;;20.53;15.63;;;20.70;99.90;;;;;;5013625;28;20487;-74
2022/08/18 06:56:27;;;;;;;17.70;15.57;;;20.70;99.90;;;;;;5013626;28;20473;-74
2022/08/18 06:58:54;;;;;;;20.37;17.20;;;20.70;99.90;;;;;;5013547;28;20440;-74
2022/08/18 07:01:23;;;;;;;24.70;17.27;;;20.70;99.90;;;;;;5013267;28;20497;-74
2022/08/18 07:03:53;;;;;;;18.40;16.50;;;20.70;99.90;;;;;;5012817;28;20484;-74
2022/08/18 07:06:30;;;;;;;19.80;16.90;;;20.70;99.90;;;;;;5013096;28;20545;-74
2022/08/18 07:09:22;;;;;;;23.77;19.37;;;20.70;99.90;;;;;;5013014;28;20469;-74
2022/08/18 07:12:02;;;;;;;26.83;18.00;;;20.80;99.90;;;;;;5013626;28;20445;-74
2022/08/18 07:14:28;;;;;;;25.73;19.87;;;20.90;99.90;;;;;;5012721;28;20482;-74
2022/08/18 07:17:10;;;;;;;22.40;20.00;;;20.80;99.90;;;;;;5012946;28;20935;-74
2022/08/18 07:19:37;;;;;;;22.07;19.77;;;20.90;99.90;;;;;;5012696;28;20490;-74
2022/08/18 07:22:07;;;;;;;22.67;18.50;;;20.90;99.90;;;;;;5012860;28;20553;-74
2022/08/18 07:24:39;;;;;;;25.97;19.43;;;21.00;99.90;;;;;;5012522;28;20471;-74
2022/08/18 07:27:09;;;;;;;22.93;20.40;;;21.00;99.90;;;;;;5013014;28;20455;-74
2022/08/18 07:29:39;;;;;;;21.23;18.93;;;21.10;99.90;;;;;;5012791;28;20449;-74
2022/08/18 07:32:13;;;;;;;20.53;18.33;;;21.10;99.90;;;;;;5013022;28;20490;-74
2022/08/18 07:34:44;;;;;;;22.33;19.93;;;21.20;99.90;;;;;;5012819;28;20486;-74
2022/08/18 07:37:17;;;;;;;22.33;18.60;;;21.20;99.90;;;;;;5012803;28;20802;-74
2022/08/18 07:39:49;;;;;;;21.50;18.10;;;21.30;99.90;;;;;;5012807;28;20494;-74
2022/08/18 07:42:28;;;;;;;19.10;17.00;;;21.40;99.90;;;;;;5012943;28;20809;-74
2022/08/18 07:45:00;;;;;;;20.37;18.27;;;21.40;99.90;;;;;;5012591;28;20485;-74
2022/08/18 07:47:32;;;;;;;22.87;16.80;;;21.40;99.90;;;;;;5012218;28;20462;-74
2022/08/18 07:49:59;;;;;;;20.67;16.63;;;21.40;99.90;;;;;;5012802;28;20582;-74
2022/08/18 07:52:30;;;;;;;18.17;16.27;;;21.40;99.90;;;;;;5012543;28;20447;-74
2022/08/18 07:55:06;;;;;;;18.80;16.77;;;21.40;99.90;;;;;;5011947;28;20479;-74
2022/08/18 07:57:44;;;;;;;19.83;16.40;;;21.40;99.90;;;;;;5012700;28;20533;-74
2022/08/18 08:00:19;;;;;;;18.00;15.30;;;21.40;99.90;;;;;;5011978;28;20486;-74
2022/08/18 08:02:57;;;;;;;17.33;14.73;;;21.40;99.90;;;;;;5012614;28;20446;-74
2022/08/18 08:05:39;;;;;;;17.80;15.80;;;21.40;99.90;;;;;;5012018;28;20466;-74
2022/08/18 08:08:18;;;;;;;16.80;15.10;;;21.40;99.90;;;;;;5012482;28;20514;-74
2022/08/18 08:11:03;;;;;;;14.60;13.07;;;21.40;99.90;;;;;;5012529;28;20443;-74
2022/08/18 08:13:43;;;;;;;14.13;12.63;;;21.40;99.90;;;;;;5012163;28;20486;-74
2022/08/18 08:16:23;;;;;;;16.43;12.57;;;21.30;99.90;;;;;;5012120;28;20439;-74
2022/08/18 08:19:03;;;;;;;13.33;11.93;;;21.30;99.90;;;;;;5011969;28;20461;-74
2022/08/18 08:21:37;;;;;;;14.70;13.20;;;21.20;99.90;;;;;;5012251;28;20474;-74
2022/08/18 08:24:14;;;;;;;19.70;11.30;;;21.10;99.90;;;;;;5011932;28;20566;-74
2022/08/18 08:26:53;;;;;;;13.93;10.53;;;21.20;99.90;;;;;;5012206;28;20450;-74
2022/08/18 08:29:35;;;;;;;12.03;10.83;;;21.10;99.90;;;;;;5011771;28;20811;-74
2022/08/18 08:32:05;;;;;;;12.23;10.70;;;21.10;99.90;;;;;;5011872;28;20526;-74
2022/08/18 08:34:41;;;;;;;10.90;9.87;;;21.10;99.90;;;;;;5011987;28;20475;-74
2022/08/18 08:37:13;;;;;;;12.03;9.27;;;21.10;99.90;;;;;;5012049;28;20439;-74
2022/08/18 08:39:48;;;;;;;11.77;10.67;;;21.10;99.90;;;;;;5011539;28;20465;-74
2022/08/18 08:42:20;;;;;;;13.63;10.43;;;21.10;99.90;;;;;;5011926;28;20486;-74
2022/08/18 08:44:54;;;;;;;12.87;11.40;;;21.10;99.90;;;;;;5011850;28;20483;-74
2022/08/18 08:47:31;;;;;;;12.73;11.17;;;21.00;99.90;;;;;;5012054;28;20442;-74
2022/08/18 08:50:02;;;;;;;10.90;9.77;;;21.00;99.90;;;;;;5011889;28;20450;-74
2022/08/18 08:52:35;;;;;;;15.70;12.23;;;21.10;99.90;;;;;;5012128;28;20825;-75
2022/08/18 08:55:06;;;;;;;12.20;10.90;;;21.10;99.90;;;;;;5011983;28;20673;-75
2022/08/18 08:57:39;;;;;;;12.30;11.00;;;21.10;99.90;;;;;;5012050;28;20461;-75
2022/08/18 09:00:10;;;;;;;12.43;11.13;;;21.20;99.90;;;;;;5015515;28;20461;-75
2022/08/18 09:03:06;;;;;;;12.10;9.97;;;21.20;99.90;;;;;;5015202;28;20462;-75
2022/08/18 09:05:40;;;;;;;12.90;11.60;;;21.20;99.90;;;;;;5015452;28;20450;-75
2022/08/18 09:08:31;;;;;;;11.67;10.57;;;21.20;99.90;;;;;;5015474;28;20809;-75
2022/08/18 09:11:32;;;;;;;11.40;10.33;;;21.20;99.90;;;;;;5015411;28;20437;-75
2022/08/18 09:14:35;;;;;;;13.60;11.13;;;21.20;99.90;;;;;;5007358;28;20497;-75
2022/08/18 09:17:22;;;;;;;12.70;11.20;;;21.20;99.90;;;;;;4979289;28;20482;-75
2022/08/18 09:20:04;;;;;;;11.20;9.70;;;21.20;99.90;;;;;;5015495;28;20454;-75
2022/08/18 09:22:43;;;;;;;12.63;10.30;;;21.30;99.90;;;;;;5015438;28;20498;-75
2022/08/18 09:25:29;;;;;;;14.67;10.93;;;21.20;99.90;;;;;;5014987;28;20934;-75
2022/08/18 09:28:10;;;;;;;12.30;10.77;;;21.30;99.90;;;;;;5015279;28;20439;-75
2022/08/18 09:30:43;;;;;;;10.77;9.70;;;21.30;99.90;;;;;;5015140;28;20896;-74
2022/08/18 09:33:21;;;;;;;12.23;10.93;;;21.30;99.90;;;;;;5015007;28;20483;-74
2022/08/18 09:36:18;;;;;;;12.67;10.70;;;21.40;99.90;;;;;;5014616;28;20463;-74
2022/08/18 09:41:46;;;;;;;13.57;11.60;;;21.50;99.90;;;;;;5014908;28;20494;-74
2022/08/18 09:44:34;;;;;;;13.77;12.37;;;21.60;99.90;;;;;;5014760;28;20501;-74
2022/08/18 09:47:01;;;;;;;13.33;11.50;;;21.70;99.90;;;;;;5014561;28;20457;-74
2022/08/18 09:49:49;;;;;;;13.10;11.80;;;21.80;99.90;;;;;;5014996;28;20462;-74
2022/08/18 09:52:53;;;;;;;14.47;12.87;;;21.90;99.90;;;;;;5014594;28;20461;-74
2022/08/18 09:55:53;;;;;;;15.67;14.07;;;22.00;99.90;;;;;;5014743;28;20454;-74
2022/08/18 09:58:36;;;;;;;16.87;15.13;;;22.10;99.90;;;;;;5014469;28;20462;-74
2022/08/18 10:01:31;;;;;;;16.00;14.30;;;22.20;99.90;;;;;;5013388;28;20917;-74
2022/08/18 10:04:28;;;;;;;20.00;13.90;;;22.30;99.90;;;;;;5014198;28;20477;-74
2022/08/18 10:07:15;;;;;;;15.73;14.00;;;22.50;99.90;;;;;;5014404;28;20455;-74
2022/08/18 10:10:09;;;;;;;13.60;12.30;;;22.60;99.90;;;;;;5014514;28;20454;-74
2022/08/18 10:12:54;;;;;;;14.63;10.70;;;22.80;99.90;;;;;;5014162;28;20446;-74
2022/08/18 10:15:36;;;;;;;15.13;11.87;;;23.00;99.90;;;;;;5040364;23;20583;-79
2022/08/18 10:18:17;;;;;;;12.83;11.53;;;23.10;99.90;;;;;;5019057;28;20453;-79
2022/08/18 10:20:55;;;;;;;12.03;10.83;;;23.20;99.90;;;;;;5018925;28;20769;-79
2022/08/18 10:23:46;;;;;;;11.77;10.20;;;23.20;99.90;;;;;;5018087;28;20799;-79
2022/08/18 10:26:50;;;;;;;11.90;10.70;;;23.40;99.90;;;;;;5018896;28;20462;-80
2022/08/18 10:29:49;;;;;;;12.10;10.90;;;23.60;99.90;;;;;;5019479;28;20557;-79
2022/08/18 10:32:43;;;;;;;13.57;11.60;;;23.60;99.90;;;;;;5018746;28;20453;-80
2022/08/18 10:35:52;;;;;;;14.53;10.87;;;23.70;99.90;;;;;;5009314;28;20494;-79
2022/08/18 10:38:37;;;;;;;12.93;11.53;;;23.80;99.90;;;;;;4987187;28;20826;-79
2022/08/18 10:41:09;;;;;;;12.67;11.43;;;23.90;99.90;;;;;;5018733;28;20475;-80
2022/08/18 10:43:45;;;;;;;13.10;11.70;;;24.00;99.90;;;;;;5018487;28;20470;-79
2022/08/18 10:46:18;;;;;;;12.37;11.17;;;24.20;99.90;;;;;;5018712;28;20447;-80
2022/08/18 10:48:57;;;;;;;14.20;12.63;;;24.20;99.90;;;;;;5017989;28;20957;-79
2022/08/18 10:51:35;;;;;;;12.43;11.13;;;24.40;99.90;;;;;;5018449;28;20443;-79
2022/08/18 10:54:12;;;;;;;13.80;12.20;;;24.40;99.90;;;;;;5018174;28;20481;-80
2022/08/18 10:56:46;;;;;;;16.40;11.10;;;24.60;99.90;;;;;;5018515;28;20522;-78
2022/08/18 10:59:22;;;;;;;11.57;10.00;;;24.80;99.90;;;;;;5018483;28;20477;-79
2022/08/18 11:02:17;;;;;;;11.43;9.40;;;24.90;99.90;;;;;;5018439;28;20475;-78
2022/08/18 11:04:46;;;;;;;11.97;10.50;;;25.20;99.90;;;;;;5018199;28;20550;-79
2022/08/18 11:07:15;;;;;;;12.50;9.87;;;25.40;99.90;;;;;;5018988;28;20532;-79
2022/08/18 11:09:43;;;;;;;10.20;9.10;;;25.50;99.90;;;;;;5018484;28;20545;-80
2022/08/18 11:12:14;;;;;;;12.87;9.47;;;25.60;99.90;;;;;;5018528;28;20509;-79
2022/08/18 11:14:57;;;;;;;9.90;9.00;;;25.70;99.90;;;;;;5018528;28;20475;-80
2022/08/18 11:17:38;;;;;;;11.70;10.53;;;25.90;99.90;;;;;;5018906;28;20457;-79
2022/08/18 11:20:08;;;;;;;10.13;9.10;;;25.90;99.90;;;;;;5018278;28;20884;-80
2022/08/18 11:22:36;;;;;;;9.67;8.07;;;26.00;99.90;;;;;;5018645;28;20553;-80
2022/08/18 11:25:18;;;;;;;9.30;8.40;;;26.10;99.90;;;;;;5018388;28;20982;-80
2022/08/18 11:27:48;;;;;;;9.07;8.23;;;26.20;99.90;;;;;;5019016;28;20435;-80
2022/08/18 11:30:15;;;;;;;10.97;8.60;;;26.20;99.90;;;;;;5019188;28;20546;-79
2022/08/18 11:32:43;;;;;;;9.20;8.10;;;26.50;99.90;;;;;;5017684;28;20909;-80
2022/08/18 11:35:14;;;;;;;9.63;8.63;;;26.70;99.90;;;;;;5018444;28;21002;-80
2022/08/18 11:37:46;;;;;;;10.40;8.87;;;26.90;99.90;;;;;;5018701;28;20466;-79
2022/08/18 11:40:28;;;;;;;8.73;7.70;;;27.00;99.90;;;;;;5018766;28;20907;-79
2022/08/18 11:43:01;;;;;;;9.60;8.20;;;27.20;99.90;;;;;;5018444;28;20475;-79
2022/08/18 11:45:34;;;;;;;9.50;8.50;;;27.30;99.90;;;;;;5018896;28;20843;-80
2022/08/18 11:48:10;;;;;;;9.67;8.27;;;27.40;99.90;;;;;;5019128;28;20519;-79
2022/08/18 11:50:47;;;;;;;9.03;8.13;;;27.50;99.90;;;;;;5018755;28;20497;-80
2022/08/18 11:53:21;;;;;;;9.63;7.90;;;27.60;99.90;;;;;;5018815;28;20488;-79
2022/08/18 11:56:03;;;;;;;9.07;8.20;;;27.70;99.90;;;;;;5019026;28;20438;-79
2022/08/18 11:58:44;;;;;;;12.03;9.03;;;27.70;99.90;;;;;;5018884;28;20449;-80
2022/08/18 12:01:29;;;;;;;11.30;7.50;;;27.60;99.90;;;;;;5019003;28;20443;-80
2022/08/18 12:03:57;;;;;;;8.33;7.50;;;27.70;99.90;;;;;;5018564;28;20482;-79
2022/08/18 12:06:27;;;;;;;8.80;7.90;;;27.70;99.90;;;;;;5018263;28;20462;-79
2022/08/18 12:08:59;;;;;;;9.50;7.73;;;27.60;99.90;;;;;;5019748;28;20463;-79
2022/08/18 12:11:29;;;;;;;8.17;7.03;;;27.50;99.90;;;;;;5020434;28;20503;-79
2022/08/18 12:14:07;;;;;;;8.37;7.50;;;27.50;99.90;;;;;;5018496;28;20997;-79
2022/08/18 12:16:40;;;;;;;8.10;7.27;;;27.40;99.90;;;;;;5018449;28;20454;-79
2022/08/18 12:19:10;;;;;;;8.27;7.40;;;27.30;99.90;;;;;;5018476;28;20462;-79
2022/08/18 12:21:41;;;;;;;7.50;6.80;;;27.30;99.90;;;;;;5018458;28;20650;-79
2022/08/18 12:24:18;;;;;;;10.43;6.90;;;27.30;99.90;;;;;;5017951;28;20471;-79
2022/08/18 12:26:45;;;;;;;11.10;7.93;;;27.20;99.90;;;;;;5018046;28;20972;-79
2022/08/18 12:29:13;;;;;;;9.20;7.70;;;27.20;99.90;;;;;;5018400;28;20562;-79
2022/08/18 12:31:40;;;;;;;12.70;7.90;;;27.30;99.90;;;;;;5018331;28;20457;-79
2022/08/18 12:34:07;;;;;;;8.80;7.90;;;27.40;99.90;;;;;;5017173;28;20485;-79
2022/08/18 12:36:35;;;;;;;9.23;7.40;;;27.50;99.90;;;;;;5018026;28;20490;-78
2022/08/18 12:39:02;;;;;;;8.43;7.63;;;27.60;99.90;;;;;;5018433;28;20454;-78
2022/08/18 12:41:29;;;;;;;9.43;7.70;;;27.70;99.90;;;;;;5016733;28;20517;-79
2022/08/18 12:43:56;;;;;;;10.60;8.33;;;27.70;99.90;;;;;;5018558;28;20478;-79
2022/08/18 12:46:24;;;;;;;9.17;8.27;;;27.80;99.90;;;;;;5017834;28;20454;-78
2022/08/18 12:48:51;;;;;;;10.47;7.77;;;28.00;99.90;;;;;;5017325;28;20839;-79
2022/08/18 12:51:18;;;;;;;8.50;7.50;;;28.10;99.90;;;;;;5017248;28;20466;-79
2022/08/18 12:53:45;;;;;;;9.23;7.80;;;28.00;99.90;;;;;;5017428;28;20513;-79
2022/08/18 12:56:20;;;;;;;8.03;7.20;;;28.00;99.90;;;;;;5016929;28;20530;-79
2022/08/18 12:58:48;;;;;;;8.57;7.67;;;28.10;99.90;;;;;;5017436;28;20438;-78
2022/08/18 13:01:15;;;;;;;7.97;7.27;;;28.20;99.90;;;;;;5018187;28;20457;-79
2022/08/18 13:03:44;;;;;;;8.97;7.53;;;28.20;99.90;;;;;;5018341;28;20586;-79
2022/08/18 13:06:11;;;;;;;8.20;7.40;;;28.20;99.90;;;;;;5018565;28;20515;-78
2022/08/18 13:08:38;;;;;;;9.27;7.20;;;28.40;99.90;;;;;;5017562;28;20463;-79
2022/08/18 13:11:09;;;;;;;7.37;6.70;;;28.50;99.90;;;;;;5018663;28;20461;-79
2022/08/18 13:13:37;;;;;;;7.90;7.30;;;28.60;99.90;;;;;;5021485;28;20475;-79
2022/08/18 13:16:04;;;;;;;8.77;7.13;;;28.70;99.90;;;;;;5020177;28;20531;-78
2022/08/18 13:18:31;;;;;;;8.80;6.47;;;28.70;99.90;;;;;;5018666;28;20595;-79
2022/08/18 13:20:59;;;;;;;10.37;7.30;;;28.70;99.90;;;;;;5018580;28;20469;-78
2022/08/18 13:23:27;;;;;;;7.30;6.40;;;28.80;99.90;;;;;;5018200;28;20517;-79
2022/08/18 13:25:54;;;;;;;7.67;6.87;;;28.90;99.90;;;;;;5018844;28;20451;-79
2022/08/18 13:28:21;;;;;;;7.53;6.90;;;29.00;99.90;;;;;;5016826;28;20469;-79
2022/08/18 13:30:49;;;;;;;7.13;6.33;;;29.00;99.90;;;;;;5016157;28;20454;-79
2022/08/18 13:33:17;;;;;;;9.00;7.17;;;29.10;99.90;;;;;;5016664;28;20804;-79
2022/08/18 13:35:44;;;;;;;6.80;6.10;;;29.20;99.90;;;;;;5015654;28;20841;-79
2022/08/18 13:38:13;;;;;;;7.83;6.60;;;29.30;99.90;;;;;;5016781;28;20480;-79
2022/08/18 13:40:41;;;;;;;7.70;6.33;;;29.40;99.90;;;;;;5017087;28;20459;-79
2022/08/18 13:43:09;;;;;;;7.33;6.60;;;29.40;99.90;;;;;;5017837;28;20577;-79
2022/08/18 13:45:35;;;;;;;7.63;6.60;;;29.30;99.90;;;;;;5020581;28;20557;-79
2022/08/18 13:48:04;;;;;;;7.60;6.80;;;29.30;99.90;;;;;;5020609;28;20541;-78
2022/08/18 13:50:31;;;;;;;8.07;7.27;;;29.30;99.90;;;;;;5021183;28;20462;-78
2022/08/18 13:52:59;;;;;;;6.27;5.60;;;29.30;99.90;;;;;;5020589;28;20450;-79
2022/08/18 13:55:28;;;;;;;7.60;6.50;;;29.00;99.90;;;;;;5020304;28;21032;-79
2022/08/18 13:57:55;;;;;;;7.57;6.87;;;28.90;99.90;;;;;;5020424;28;20853;-78
2022/08/18 14:00:23;;;;;;;8.93;7.30;;;28.70;99.90;;;;;;5020366;28;20467;-79
2022/08/18 14:02:52;;;;;;;10.03;8.07;;;28.60;99.90;;;;;;5020501;28;20499;-79
2022/08/18 14:05:19;;;;;;;10.00;6.67;;;28.50;99.90;;;;;;5020277;28;20479;-78
2022/08/18 14:07:46;;;;;;;7.53;6.83;;;28.40;99.90;;;;;;5020917;28;20980;-79
2022/08/18 14:10:15;;;;;;;8.60;6.87;;;28.40;99.90;;;;;;5020839;28;20463;-79
2022/08/18 14:12:45;;;;;;;9.67;7.77;;;28.30;99.90;;;;;;5019046;28;20455;-79
2022/08/18 14:15:15;;;;;;;10.77;6.80;;;28.30;99.90;;;;;;5017602;28;20497;-79
2022/08/18 14:17:42;;;;;;;6.70;6.10;;;28.20;99.90;;;;;;5020831;28;20538;-79
2022/08/18 14:28:28;;;;;;;7.20;6.20;;;28.40;99.90;;;;;;5020162;28;20430;-79
2022/08/18 14:30:56;;;;;;;6.27;5.67;;;28.50;99.90;;;;;;5019700;28;20546;-79
2022/08/18 14:33:25;;;;;;;8.27;6.07;;;28.50;99.90;;;;;;5020575;28;20459;-79
2022/08/18 14:35:52;;;;;;;9.50;6.00;;;28.50;99.90;;;;;;5019405;28;20482;-79
2022/08/18 14:38:19;;;;;;;6.80;6.20;;;28.50;99.90;;;;;;5020043;28;20958;-79
2022/08/18 14:40:47;;;;;;;6.70;6.07;;;28.50;99.90;;;;;;5020130;28;20462;-79
2022/08/18 14:43:16;;;;;;;8.87;6.00;;;28.40;99.90;;;;;;5018775;28;20491;-78
2022/08/18 14:45:47;;;;;;;7.27;6.57;;;28.40;99.90;;;;;;5019220;28;20550;-79
2022/08/18 14:48:15;;;;;;;7.60;6.40;;;28.40;99.90;;;;;;5019762;28;20458;-78
2022/08/18 14:50:43;;;;;;;6.40;5.80;;;28.30;99.90;;;;;;5020218;28;20454;-79
2022/08/18 14:53:12;;;;;;;7.20;6.30;;;28.40;99.90;;;;;;5018538;28;20497;-79
2022/08/18 14:55:39;;;;;;;6.40;5.80;;;28.30;99.90;;;;;;5017993;28;20463;-79
2022/08/18 14:58:07;;;;;;;8.93;6.10;;;28.30;99.90;;;;;;5018992;28;20885;-79
2022/08/18 15:00:35;;;;;;;7.00;6.30;;;28.40;99.90;;;;;;5018858;28;20458;-79
2022/08/18 15:03:05;;;;;;;6.47;5.87;;;28.40;99.90;;;;;;5019670;28;20493;-79
2022/08/18 15:05:32;;;;;;;7.13;6.47;;;28.50;99.90;;;;;;5019370;28;20569;-79
2022/08/18 15:07:59;;;;;;;6.57;5.93;;;28.60;99.90;;;;;;5019841;28;20534;-79
2022/08/18 15:10:26;;;;;;;6.80;6.20;;;28.50;99.90;;;;;;5019477;28;20976;-79
2022/08/18 15:12:52;;;;;;;6.50;6.00;;;28.40;99.90;;;;;;5019613;28;20450;-79
2022/08/18 15:15:19;;;;;;;6.77;6.07;;;28.30;99.90;;;;;;5022501;28;20506;-77
2022/08/18 15:17:46;;;;;;;10.67;6.80;;;28.20;99.90;;;;;;5033688;28;20458;-77
2022/08/18 15:20:15;;;;;;;6.80;6.07;;;28.10;99.90;;;;;;5030597;28;20546;-79
2022/08/18 15:25:41;;;;;;;6.97;6.10;;;28.10;99.90;;;;;;5017775;28;20484;-78
2022/08/18 15:28:08;;;;;;;7.00;6.30;;;28.00;99.90;;;;;;5017659;28;20485;-79
2022/08/18 15:30:36;;;;;;;8.70;6.60;;;28.00;99.90;;;;;;5017602;28;20573;-79
2022/08/18 15:33:05;;;;;;;9.50;6.63;;;27.80;99.90;;;;;;5018310;28;20505;-78
2022/08/18 15:35:33;;;;;;;7.50;6.80;;;27.70;99.90;;;;;;5017970;28;20526;-79
2022/08/18 15:38:00;;;;;;;7.40;6.00;;;27.70;99.90;;;;;;5018338;28;20509;-78
2022/08/18 15:40:29;;;;;;;8.20;6.57;;;27.60;99.90;;;;;;5017580;28;20462;-79
2022/08/18 15:43:00;;;;;;;7.57;6.70;;;27.70;99.90;;;;;;5017533;28;20494;-79
2022/08/18 15:45:31;;;;;;;7.20;6.37;;;27.70;99.90;;;;;;5017017;28;20489;-79
2022/08/18 15:47:58;;;;;;;6.40;5.90;;;27.70;99.90;;;;;;5018163;28;20436;-79
2022/08/18 15:50:25;;;;;;;6.40;5.80;;;27.70;99.90;;;;;;5018069;28;20459;-79
2022/08/18 15:52:56;;;;;;;7.43;5.80;;;27.70;99.90;;;;;;5016885;28;20493;-79
2022/08/18 15:55:25;;;;;;;7.47;6.77;;;27.70;99.90;;;;;;5016945;28;20971;-79
2022/08/18 15:57:52;;;;;;;8.53;6.90;;;27.70;99.90;;;;;;5017640;28;20455;-79
2022/08/18 16:00:20;;;;;;;9.40;6.60;;;27.70;99.90;;;;;;5017233;28;20468;-79
2022/08/18 16:02:50;;;;;;;8.83;5.80;;;27.60;99.90;;;;;;5017675;28;20590;-79
2022/08/18 16:05:20;;;;;;;7.30;6.47;;;27.60;99.90;;;;;;5016903;28;20513;-78
2022/08/18 16:07:47;;;;;;;6.70;6.10;;;27.60;99.90;;;;;;5017130;28;20466;-79
2022/08/18 16:10:18;;;;;;;7.77;6.77;;;27.60;99.90;;;;;;5017187;28;20493;-79
2022/08/18 16:12:46;;;;;;;7.07;6.33;;;27.60;99.90;;;;;;5017965;28;20453;-79
2022/08/18 16:15:14;;;;;;;8.60;5.97;;;27.50;99.90;;;;;;5052970;23;20558;-74
2022/08/18 16:17:40;;;;;;;7.43;6.73;;;27.50;99.90;;;;;;5012191;28;20888;-74
2022/08/18 16:20:08;;;;;;;7.53;6.83;;;27.50;99.90;;;;;;5011907;28;20465;-74
2022/08/18 16:22:37;;;;;;;7.47;6.70;;;27.50;99.90;;;;;;5012300;28;20938;-74
2022/08/18 16:25:06;;;;;;;8.57;6.40;;;27.50;99.90;;;;;;5011785;28;20517;-74
2022/08/18 16:27:35;;;;;;;7.13;6.53;;;27.50;99.90;;;;;;5011906;28;21018;-75
2022/08/18 16:30:03;;;;;;;7.70;6.90;;;27.40;99.90;;;;;;5012316;28;20459;-75
2022/08/18 16:32:31;;;;;;;11.37;6.73;;;27.40;99.90;;;;;;5011925;28;20979;-75
2022/08/18 16:34:58;;;;;;;9.50;5.97;;;27.40;99.90;;;;;;5012046;28;20664;-73
2022/08/18 16:37:25;;;;;;;10.40;7.27;;;27.40;99.90;;;;;;5011849;28;20505;-75
2022/08/18 16:39:52;;;;;;;7.13;6.43;;;27.30;99.90;;;;;;5011919;28;20557;-74
2022/08/18 16:42:19;;;;;;;9.57;6.77;;;27.30;99.90;;;;;;5011977;28;20459;-74
2022/08/18 16:44:47;;;;;;;9.80;7.27;;;27.30;99.90;;;;;;5011424;28;21033;-74
2022/08/18 16:47:17;;;;;;;7.97;7.27;;;27.20;99.90;;;;;;5011577;28;20550;-74
2022/08/18 16:49:47;;;;;;;8.50;7.00;;;27.20;99.90;;;;;;5012058;28;20447;-75
2022/08/18 16:52:14;;;;;;;8.40;7.47;;;27.10;99.90;;;;;;5012003;28;20946;-74
2022/08/18 16:54:41;;;;;;;7.53;6.70;;;27.10;99.90;;;;;;5011482;28;20994;-75
2022/08/18 16:57:08;;;;;;;13.40;8.10;;;27.10;99.90;;;;;;5012119;28;20814;-75
2022/08/18 17:05:05;;;;;;;7.67;6.87;;;27.00;99.90;;;;;;5011540;28;20501;-74
2022/08/18 17:07:34;;;;;;;7.53;6.83;;;26.90;99.90;;;;;;5012321;28;20461;-74
2022/08/18 17:10:02;;;;;;;7.20;6.50;;;26.90;99.90;;;;;;5012025;28;20812;-73
2022/08/18 17:12:29;;;;;;;9.43;6.30;;;26.90;99.90;;;;;;5012084;28;20454;-73
2022/08/18 17:14:56;;;;;;;7.80;6.50;;;26.80;99.90;;;;;;5011266;28;20479;-74
2022/08/18 17:17:24;;;;;;;7.40;6.70;;;26.80;99.90;;;;;;5011567;28;20454;-74
2022/08/18 17:19:51;;;;;;;6.83;6.13;;;26.80;99.90;;;;;;5013712;28;20833;-75
2022/08/18 17:22:18;;;;;;;7.40;6.70;;;26.80;99.90;;;;;;5015228;28;20516;-75
2022/08/18 17:24:46;;;;;;;9.90;7.00;;;26.80;99.90;;;;;;5014734;28;20502;-74
2022/08/18 17:27:17;;;;;;;8.73;7.50;;;26.80;99.90;;;;;;5015510;28;20505;-74
2022/08/18 17:29:49;;;;;;;7.50;6.80;;;26.70;99.90;;;;;;5015605;28;20524;-74
2022/08/18 17:32:22;;;;;;;8.60;6.40;;;26.70;99.90;;;;;;5015134;28;20458;-73